| time (UTC) | temp C | wind direction | speed KPH | gust KPH | rain 1hr cm | rain 24hr cm | rain mn cm | humidity % | barometer mb |
| 20260508020404 | 6 | 60 | 0.0 | 0.0 | 0.00 | 0.23 | 0.05 | 56 | 1005.2 |
| 20260508015904 | 6 | 60 | 0.0 | 0.0 | 0.00 | 0.23 | 0.05 | 53 | 1005.1 |
| 20260508015404 | 7 | 60 | 0.0 | 0.0 | 0.00 | 0.23 | 0.05 | 52 | 1005.1 |
| 20260508014404 | 7 | 60 | 0.0 | 0.0 | 0.00 | 0.23 | 0.05 | 51 | 1005.1 |
| 20260508013904 | 7 | 60 | 0.0 | 0.0 | 0.00 | 0.23 | 0.05 | 52 | 1005.1 |
| 20260508012904 | 7 | 60 | 0.0 | 0.0 | 0.00 | 0.23 | 0.05 | 50 | 1005.1 |
| 20260508012404 | 7 | 60 | 0.0 | 0.0 | 0.00 | 0.25 | 0.05 | 51 | 1005.0 |
| 20260508011904 | 7 | 60 | 0.0 | 3.2 | 0.00 | 0.25 | 0.05 | 50 | 1004.9 |
| 20260508011404 | 8 | 57 | 0.0 | 0.0 | 0.00 | 0.25 | 0.05 | 49 | 1004.9 |
| 20260508010404 | 8 | 57 | 0.0 | 0.0 | 0.00 | 0.28 | 0.05 | 48 | 1004.8 |
| 20260508005905 | 8 | 57 | 0.0 | 0.0 | 0.00 | 0.28 | 0.05 | 48 | 1004.9 |
| 20260508005404 | 8 | 57 | 0.0 | 3.2 | 0.00 | 0.30 | 0.05 | 46 | 1004.9 |
| 20260508004904 | 8 | 57 | 0.0 | 0.0 | 0.00 | 0.33 | 0.05 | 46 | 1004.8 |
| 20260508004404 | 8 | 57 | 0.0 | 0.0 | 0.00 | 0.36 | 0.05 | 46 | 1004.7 |
| 20260508003904 | 8 | 57 | 0.0 | 3.2 | 0.00 | 0.38 | 0.05 | 46 | 1004.6 |
| 20260508003404 | 9 | 57 | 0.0 | 1.6 | 0.00 | 0.46 | 0.05 | 45 | 1004.5 |
| 20260508002904 | 9 | 57 | 1.6 | 4.8 | 0.00 | 0.56 | 0.05 | 45 | 1004.4 |
| 20260508002405 | 9 | 57 | 1.6 | 8.0 | 0.00 | 0.66 | 0.05 | 45 | 1004.3 |
| 20260508001904 | 9 | 67 | 1.6 | 12.9 | 0.00 | 0.69 | 0.05 | 45 | 1004.1 |
| 20260508001404 | 9 | 75 | 0.0 | 3.2 | 0.00 | 0.71 | 0.05 | 45 | 1004.1 |
| 20260508000904 | 9 | 67 | 3.2 | 16.1 | 0.00 | 0.76 | 0.05 | 44 | 1004.1 |
| 20260508000405 | 10 | 76 | 3.2 | 8.0 | 0.00 | 0.76 | 0.05 | 45 | 1004.1 |
| 20260507235904 | 10 | 101 | 3.2 | 14.5 | 0.00 | 0.79 | 0.05 | 45 | 1004.1 |
| 20260507235404 | 10 | 83 | 8.0 | 19.3 | 0.00 | 0.81 | 0.05 | 44 | 1004.0 |
| 20260507234904 | 10 | 83 | 3.2 | 12.9 | 0.00 | 0.81 | 0.05 | 43 | 1004.0 |
| 20260507234405 | 10 | 94 | 8.0 | 20.9 | 0.00 | 0.84 | 0.05 | 43 | 1004.0 |
| 20260507233904 | 10 | 65 | 4.8 | 14.5 | 0.00 | 0.86 | 0.05 | 43 | 1003.8 |
| 20260507233404 | 11 | 80 | 4.8 | 12.9 | 0.00 | 0.86 | 0.05 | 43 | 1003.8 |
| 20260507232904 | 11 | 72 | 3.2 | 16.1 | 0.00 | 0.89 | 0.05 | 44 | 1003.7 |
| 20260507232404 | 11 | 101 | 3.2 | 12.9 | 0.00 | 0.89 | 0.05 | 42 | 1003.7 |
| 20260507231404 | 11 | 94 | 9.7 | 22.5 | 0.00 | 0.91 | 0.05 | 40 | 1003.4 |
| 20260507230903 | 11 | 95 | 11.3 | 22.5 | 0.00 | 0.91 | 0.05 | 40 | 1003.3 |
| 20260507230404 | 11 | 81 | 9.7 | 25.7 | 0.00 | 0.91 | 0.05 | 41 | 1003.2 |
| 20260507225904 | 11 | 97 | 1.6 | 19.3 | 0.00 | 0.91 | 0.05 | 41 | 1003.2 |
| 20260507225404 | 11 | 90 | 6.4 | 20.9 | 0.00 | 0.94 | 0.05 | 41 | 1003.2 |
| 20260507224904 | 11 | 113 | 9.7 | 27.4 | 0.00 | 0.94 | 0.05 | 42 | 1003.1 |
| 20260507224403 | 11 | 111 | 9.7 | 27.4 | 0.00 | 0.94 | 0.05 | 42 | 1003.1 |
| 20260507223904 | 11 | 82 | 3.2 | 16.1 | 0.00 | 0.94 | 0.05 | 42 | 1003.0 |
| 20260507223404 | 11 | 92 | 8.0 | 22.5 | 0.00 | 0.94 | 0.05 | 42 | 1002.9 |
| 20260507222904 | 11 | 112 | 3.2 | 12.9 | 0.00 | 0.94 | 0.05 | 42 | 1002.9 |
| 20260507222404 | 11 | 108 | 9.7 | 20.9 | 0.00 | 0.94 | 0.05 | 42 | 1002.8 |
| 20260507221904 | 12 | 88 | 14.5 | 29.0 | 0.00 | 0.94 | 0.05 | 41 | 1002.7 |
| 20260507221404 | 12 | 99 | 0.0 | 11.3 | 0.00 | 0.94 | 0.05 | 42 | 1002.7 |
| 20260507220904 | 12 | 111 | 3.2 | 25.7 | 0.00 | 0.94 | 0.05 | 42 | 1002.6 |
| 20260507220404 | 12 | 73 | 3.2 | 12.9 | 0.00 | 0.94 | 0.05 | 42 | 1002.5 |
| 20260507215404 | 12 | 97 | 4.8 | 20.9 | 0.00 | 0.94 | 0.05 | 40 | 1002.6 |
| 20260507214404 | 12 | 96 | 3.2 | 14.5 | 0.00 | 0.97 | 0.05 | 40 | 1002.6 |
| 20260507213404 | 12 | 74 | 6.4 | 19.3 | 0.00 | 0.97 | 0.05 | 41 | 1002.5 |
| 20260507212905 | 13 | 74 | 6.4 | 19.3 | 0.00 | 0.99 | 0.05 | 39 | 1002.4 |
| 20260507212404 | 13 | 100 | 3.2 | 19.3 | 0.00 | 1.02 | 0.05 | 40 | 1002.3 |
| 20260507211405 | 14 | 66 | 8.0 | 19.3 | 0.00 | 1.04 | 0.05 | 39 | 1002.2 |
| 20260507210904 | 14 | 76 | 3.2 | 20.9 | 0.00 | 1.04 | 0.05 | 37 | 1002.1 |
| 20260507210404 | 14 | 85 | 12.9 | 29.0 | 0.00 | 1.07 | 0.05 | 38 | 1002.1 |
| 20260507205904 | 14 | 63 | 9.7 | 27.4 | 0.00 | 1.07 | 0.05 | 37 | 1002.1 |
| 20260507205404 | 15 | 93 | 8.0 | 24.1 | 0.00 | 1.07 | 0.05 | 37 | 1002.1 |
| 20260507204404 | 15 | 71 | 9.7 | 20.9 | 0.00 | 1.09 | 0.05 | 35 | 1001.9 |
| 20260507203904 | 15 | 66 | 6.4 | 19.3 | 0.00 | 1.12 | 0.05 | 38 | 1001.8 |
| 20260507203404 | 15 | 44 | 1.6 | 16.1 | 0.00 | 1.12 | 0.05 | 39 | 1001.9 |
| 20260507202904 | 14 | 37 | 11.3 | 24.1 | 0.00 | 1.12 | 0.05 | 37 | 1001.8 |
| 20260507202405 | 14 | 63 | 11.3 | 24.1 | 0.00 | 1.14 | 0.05 | 36 | 1001.7 |
| 20260507201904 | 14 | 55 | 6.4 | 19.3 | 0.00 | 1.17 | 0.05 | 38 | 1001.7 |
| 20260507201404 | 14 | 86 | 1.6 | 19.3 | 0.00 | 1.17 | 0.05 | 38 | 1001.7 |
| 20260507195904 | 14 | 38 | 12.9 | 25.7 | 0.00 | 1.19 | 0.05 | 39 | 1001.7 |
| 20260507194405 | 13 | 29 | 3.2 | 12.9 | 0.00 | 1.22 | 0.05 | 43 | 1001.7 |
| 20260507193904 | 13 | 80 | 3.2 | 14.5 | 0.00 | 1.24 | 0.05 | 42 | 1001.8 |
| 20260507193404 | 13 | 16 | 3.2 | 14.5 | 0.00 | 1.27 | 0.05 | 42 | 1001.8 |
| 20260507192904 | 13 | 61 | 3.2 | 12.9 | 0.00 | 1.27 | 0.05 | 42 | 1001.7 |
| 20260507192404 | 14 | 32 | 4.8 | 16.1 | 0.00 | 1.27 | 0.05 | 40 | 1001.7 |
| 20260507191905 | 15 | 45 | 4.8 | 19.3 | 0.00 | 1.30 | 0.05 | 40 | 1001.7 |
| 20260507190904 | 15 | 61 | 9.7 | 24.1 | 0.00 | 1.35 | 0.05 | 38 | 1001.7 |
| 20260507190404 | 15 | 80 | 8.0 | 32.2 | 0.00 | 1.37 | 0.05 | 41 | 1001.6 |
| 20260507185405 | 15 | 82 | 4.8 | 22.5 | 0.00 | 1.63 | 0.05 | 41 | 1001.6 |
| 20260507184904 | 16 | 65 | 4.8 | 12.9 | 0.00 | 1.88 | 0.05 | 44 | 1001.7 |
| 20260507184405 | 16 | 24 | 3.2 | 11.3 | 0.00 | 1.98 | 0.05 | 42 | 1001.7 |
| 20260507183904 | 15 | 34 | 1.6 | 20.9 | 0.00 | 1.98 | 0.05 | 43 | 1001.6 |
| 20260507183404 | 15 | 43 | 4.8 | 19.3 | 0.00 | 2.01 | 0.05 | 44 | 1001.7 |
| 20260507182404 | 15 | 27 | 11.3 | 19.3 | 0.00 | 2.08 | 0.05 | 49 | 1001.8 |
| 20260507180904 | 14 | 54 | 4.8 | 20.9 | 0.00 | 2.16 | 0.05 | 47 | 1002.1 |
| 20260507175905 | 15 | 86 | 4.8 | 16.1 | 0.00 | 2.18 | 0.05 | 45 | 1002.3 |
| 20260507175404 | 15 | 29 | 6.4 | 19.3 | 0.00 | 2.18 | 0.05 | 44 | 1002.3 |
| 20260507174904 | 15 | 55 | 9.7 | 25.7 | 0.00 | 2.18 | 0.05 | 49 | 1002.2 |
| 20260507174404 | 15 | 43 | 11.3 | 24.1 | 0.00 | 2.18 | 0.05 | 54 | 1002.2 |
| 20260507173904 | 15 | 46 | 9.7 | 22.5 | 0.00 | 2.18 | 0.05 | 53 | 1002.2 |
| 20260507173404 | 15 | 61 | 3.2 | 19.3 | 0.00 | 2.18 | 0.05 | 54 | 1002.2 |
| 20260507172904 | 15 | 61 | 4.8 | 22.5 | 0.00 | 2.18 | 0.05 | 54 | 1002.2 |
| 20260507172404 | 15 | 80 | 8.0 | 19.3 | 0.00 | 2.18 | 0.05 | 54 | 1002.3 |
| 20260507171404 | 15 | 68 | 6.4 | 25.7 | 0.00 | 2.18 | 0.05 | 54 | 1002.2 |
| 20260507170404 | 14 | 97 | 4.8 | 19.3 | 0.00 | 2.18 | 0.05 | 56 | 1002.3 |
| 20260507165904 | 14 | 79 | 9.7 | 22.5 | 0.00 | 2.18 | 0.05 | 57 | 1002.4 |
| 20260507165404 | 14 | 22 | 11.3 | 20.9 | 0.00 | 2.18 | 0.05 | 56 | 1002.5 |
| 20260507164904 | 14 | 41 | 4.8 | 19.3 | 0.00 | 2.18 | 0.05 | 55 | 1002.6 |
| 20260507164404 | 14 | 47 | 6.4 | 19.3 | 0.00 | 2.18 | 0.05 | 54 | 1002.6 |
| 20260507163904 | 15 | 70 | 8.0 | 25.7 | 0.00 | 2.18 | 0.05 | 54 | 1002.7 |
| 20260507163404 | 15 | 55 | 9.7 | 25.7 | 0.00 | 2.18 | 0.05 | 58 | 1002.7 |
| 20260507162904 | 13 | 120 | 3.2 | 19.3 | 0.00 | 2.18 | 0.05 | 57 | 1002.6 |
| 20260507162404 | 13 | 97 | 3.2 | 12.9 | 0.00 | 2.18 | 0.05 | 57 | 1002.7 |
| 20260507160903 | 13 | 50 | 3.2 | 19.3 | 0.00 | 2.18 | 0.05 | 58 | 1002.8 |
| 20260507160404 | 14 | 51 | 4.8 | 24.1 | 0.00 | 2.18 | 0.05 | 57 | 1002.8 |
| 20260507155904 | 14 | 99 | 9.7 | 25.7 | 0.00 | 2.18 | 0.05 | 56 | 1002.8 |
| 20260507155404 | 13 | 31 | 8.0 | 19.3 | 0.00 | 2.18 | 0.05 | 60 | 1002.8 |
| 20260507154903 | 13 | 63 | 9.7 | 19.3 | 0.00 | 2.18 | 0.05 | 59 | 1003.0 |
| 20260507154404 | 14 | 74 | 8.0 | 20.9 | 0.00 | 2.18 | 0.05 | 60 | 1003.1 |
| 20260507153904 | 14 | 91 | 4.8 | 19.3 | 0.00 | 2.18 | 0.05 | 62 | 1003.1 |
| 20260507153404 | 13 | 82 | 4.8 | 12.9 | 0.00 | 2.18 | 0.05 | 62 | 1003.2 |
| 20260507152905 | 13 | 55 | 8.0 | 19.3 | 0.00 | 2.18 | 0.05 | 62 | 1003.3 |
| 20260507152404 | 13 | 58 | 8.0 | 22.5 | 0.00 | 2.18 | 0.05 | 63 | 1003.3 |
| 20260507151904 | 13 | 67 | 1.6 | 12.9 | 0.00 | 2.18 | 0.05 | 66 | 1003.3 |
| 20260507150904 | 14 | 88 | 6.4 | 24.1 | 0.00 | 2.18 | 0.05 | 60 | 1003.2 |
| 20260507150404 | 14 | 103 | 14.5 | 25.7 | 0.00 | 2.18 | 0.05 | 63 | 1003.1 |
| 20260507145904 | 13 | 124 | 6.4 | 19.3 | 0.00 | 2.18 | 0.05 | 66 | 1003.1 |
| 20260507145404 | 13 | 78 | 9.7 | 22.5 | 0.00 | 2.18 | 0.05 | 63 | 1003.1 |
| 20260507144904 | 13 | 112 | 8.0 | 19.3 | 0.00 | 2.18 | 0.05 | 64 | 1003.2 |
| 20260507144404 | 13 | 93 | 9.7 | 16.1 | 0.00 | 2.18 | 0.05 | 63 | 1003.3 |
| 20260507143905 | 13 | 115 | 8.0 | 19.3 | 0.00 | 2.18 | 0.05 | 62 | 1003.3 |
| 20260507143404 | 13 | 106 | 9.7 | 20.9 | 0.00 | 2.18 | 0.05 | 62 | 1003.3 |
| 20260507142404 | 13 | 73 | 8.0 | 20.9 | 0.00 | 2.18 | 0.05 | 64 | 1003.4 |
| 20260507141404 | 12 | 91 | 8.0 | 19.3 | 0.00 | 2.18 | 0.05 | 65 | 1003.5 |
| 20260507140904 | 12 | 66 | 11.3 | 19.3 | 0.00 | 2.18 | 0.05 | 67 | 1003.6 |
| 20260507140404 | 12 | 78 | 1.6 | 11.3 | 0.00 | 2.18 | 0.05 | 67 | 1003.6 |
| 20260507135904 | 12 | 60 | 9.7 | 25.7 | 0.00 | 2.18 | 0.05 | 65 | 1003.6 |
| 20260507134904 | 12 | 72 | 4.8 | 20.9 | 0.00 | 2.18 | 0.05 | 66 | 1003.7 |
| 20260507134404 | 12 | 66 | 9.7 | 16.1 | 0.00 | 2.18 | 0.05 | 67 | 1003.6 |
| 20260507133904 | 12 | 69 | 3.2 | 19.3 | 0.00 | 2.18 | 0.05 | 68 | 1003.6 |
| 20260507133404 | 12 | 71 | 3.2 | 20.9 | 0.00 | 2.18 | 0.05 | 69 | 1003.6 |
| 20260507132905 | 12 | 93 | 4.8 | 19.3 | 0.00 | 2.18 | 0.05 | 69 | 1003.9 |
| 20260507132404 | 12 | 88 | 8.0 | 19.3 | 0.00 | 2.18 | 0.05 | 70 | 1003.9 |
| 20260507131404 | 11 | 69 | 8.0 | 20.9 | 0.00 | 2.18 | 0.05 | 70 | 1003.8 |
| 20260507130904 | 11 | 67 | 11.3 | 22.5 | 0.00 | 2.18 | 0.05 | 71 | 1003.9 |
| 20260507130403 | 11 | 80 | 14.5 | 27.4 | 0.00 | 2.18 | 0.05 | 70 | 1004.0 |
| 20260507125904 | 11 | 32 | 4.8 | 19.3 | 0.00 | 2.18 | 0.05 | 71 | 1004.0 |
| 20260507125404 | 11 | 55 | 9.7 | 22.5 | 0.00 | 2.18 | 0.05 | 73 | 1004.0 |
| 20260507124903 | 11 | 68 | 11.3 | 19.3 | 0.00 | 2.18 | 0.05 | 73 | 1004.0 |
| 20260507123904 | 11 | 63 | 9.7 | 19.3 | 0.00 | 2.18 | 0.05 | 73 | 1004.0 |
| 20260507123404 | 11 | 81 | 6.4 | 16.1 | 0.00 | 2.18 | 0.05 | 75 | 1004.1 |
| 20260507122904 | 11 | 63 | 4.8 | 19.3 | 0.00 | 2.18 | 0.05 | 75 | 1004.2 |
| 20260507122404 | 10 | 42 | 8.0 | 25.7 | 0.00 | 2.18 | 0.05 | 76 | 1004.2 |
| 20260507121904 | 10 | 59 | 3.2 | 14.5 | 0.00 | 2.18 | 0.05 | 77 | 1004.1 |
| 20260507121404 | 10 | 52 | 3.2 | 12.9 | 0.00 | 2.18 | 0.05 | 76 | 1004.1 |
| 20260507120903 | 10 | 83 | 1.6 | 8.0 | 0.00 | 2.18 | 0.05 | 80 | 1004.2 |
| 20260507120404 | 10 | 83 | 0.0 | 12.9 | 0.00 | 2.18 | 0.05 | 79 | 1004.3 |
| 20260507115904 | 10 | 52 | 0.0 | 4.8 | 0.00 | 2.18 | 0.05 | 80 | 1004.4 |
| 20260507115404 | 10 | 53 | 3.2 | 9.7 | 0.00 | 2.18 | 0.05 | 79 | 1004.4 |
| 20260507114904 | 9 | 71 | 4.8 | 12.9 | 0.00 | 2.18 | 0.05 | 79 | 1004.4 |
| 20260507114404 | 9 | 59 | 4.8 | 16.1 | 0.00 | 2.18 | 0.05 | 81 | 1004.6 |
| 20260507113904 | 8 | 69 | 0.0 | 16.1 | 0.00 | 2.18 | 0.05 | 83 | 1004.7 |
| 20260507112904 | 7 | 57 | 0.0 | 0.0 | 0.00 | 2.18 | 0.05 | 82 | 1004.7 |
| 20260507112404 | 8 | 57 | 0.0 | 8.0 | 0.00 | 2.18 | 0.05 | 83 | 1004.5 |
| 20260507111905 | 8 | 57 | 0.0 | 0.0 | 0.00 | 2.18 | 0.05 | 84 | 1004.5 |
| 20260507111404 | 7 | 65 | 0.0 | 0.0 | 0.00 | 2.18 | 0.05 | 85 | 1004.5 |
| 20260507110904 | 7 | 103 | 0.0 | 0.0 | 0.00 | 2.18 | 0.05 | 85 | 1004.6 |
| 20260507110404 | 7 | 103 | 0.0 | 0.0 | 0.00 | 2.18 | 0.05 | 84 | 1004.7 |
| 20260507105904 | 7 | 103 | 0.0 | 0.0 | 0.00 | 2.18 | 0.05 | 85 | 1004.7 |
| 20260507105404 | 7 | 103 | 0.0 | 0.0 | 0.00 | 2.18 | 0.05 | 86 | 1004.8 |
| 20260507104904 | 7 | 103 | 0.0 | 0.0 | 0.00 | 2.18 | 0.05 | 86 | 1004.8 |
| 20260507104404 | 7 | 103 | 0.0 | 0.0 | 0.00 | 2.18 | 0.05 | 87 | 1004.7 |
| 20260507103904 | 7 | 103 | 0.0 | 0.0 | 0.00 | 2.18 | 0.05 | 88 | 1004.6 |
| 20260507103405 | 7 | 103 | 0.0 | 0.0 | 0.00 | 2.18 | 0.05 | 89 | 1004.5 |
| 20260507102404 | 7 | 103 | 0.0 | 0.0 | 0.00 | 2.18 | 0.05 | 88 | 1004.2 |
| 20260507101904 | 6 | 103 | 0.0 | 0.0 | 0.00 | 2.18 | 0.05 | 88 | 1004.2 |
| 20260507100905 | 6 | 103 | 0.0 | 0.0 | 0.00 | 2.18 | 0.05 | 88 | 1004.3 |
| 20260507095404 | 6 | 103 | 0.0 | 0.0 | 0.00 | 2.18 | 0.05 | 90 | 1004.2 |
| 20260507094904 | 6 | 103 | 0.0 | 0.0 | 0.00 | 2.18 | 0.05 | 91 | 1004.0 |
| 20260507094405 | 6 | 103 | 0.0 | 0.0 | 0.00 | 2.18 | 0.05 | 91 | 1003.9 |
| 20260507093904 | 6 | 103 | 0.0 | 0.0 | 0.00 | 2.18 | 0.05 | 91 | 1003.9 |
| 20260507093404 | 6 | 103 | 0.0 | 0.0 | 0.00 | 2.18 | 0.05 | 91 | 1004.0 |
| 20260507092904 | 6 | 103 | 0.0 | 0.0 | 0.00 | 2.18 | 0.05 | 91 | 1004.0 |
| 20260507092404 | 6 | 103 | 0.0 | 0.0 | 0.00 | 2.18 | 0.05 | 91 | 1004.0 |
| 20260507090904 | 6 | 103 | 0.0 | 0.0 | 0.00 | 2.18 | 0.05 | 92 | 1004.1 |
| 20260507090404 | 6 | 103 | 0.0 | 0.0 | 0.00 | 2.18 | 0.05 | 92 | 1004.1 |
| 20260507085904 | 6 | 103 | 0.0 | 0.0 | 0.00 | 2.18 | 0.05 | 92 | 1004.1 |
| 20260507085404 | 6 | 103 | 0.0 | 0.0 | 0.00 | 2.18 | 0.05 | 92 | 1004.2 |
| 20260507084904 | 6 | 103 | 0.0 | 0.0 | 0.00 | 2.18 | 0.05 | 92 | 1004.4 |
| 20260507084404 | 6 | 103 | 0.0 | 0.0 | 0.00 | 2.18 | 0.05 | 92 | 1004.3 |
| 20260507083904 | 6 | 103 | 0.0 | 0.0 | 0.00 | 2.18 | 0.05 | 91 | 1004.2 |
| 20260507083404 | 6 | 103 | 0.0 | 0.0 | 0.00 | 2.18 | 0.05 | 92 | 1003.9 |
| 20260507082404 | 6 | 103 | 0.0 | 0.0 | 0.00 | 2.18 | 0.05 | 92 | 1003.5 |
| 20260507081405 | 7 | 103 | 0.0 | 0.0 | 0.00 | 2.18 | 0.05 | 91 | 1003.5 |
| 20260507080904 | 7 | 85 | 0.0 | 0.0 | 0.00 | 2.18 | 0.05 | 91 | 1003.5 |
| 20260507075904 | 7 | 85 | 0.0 | 0.0 | 0.00 | 2.18 | 0.05 | 90 | 1003.7 |
| 20260507074904 | 7 | 85 | 0.0 | 0.0 | 0.00 | 2.18 | 0.05 | 91 | 1003.9 |
| 20260507073904 | 7 | 70 | 0.0 | 0.0 | 0.00 | 2.18 | 0.05 | 91 | 1004.1 |
| 20260507073404 | 7 | 69 | 1.6 | 12.9 | 0.00 | 2.18 | 0.05 | 91 | 1003.8 |
| 20260507072904 | 7 | 67 | 0.0 | 4.8 | 0.00 | 2.18 | 0.05 | 92 | 1003.7 |
| 20260507072404 | 7 | 71 | 1.6 | 12.9 | 0.00 | 2.18 | 0.05 | 92 | 1003.9 |
| 20260507071404 | 7 | 102 | 0.0 | 12.9 | 0.00 | 2.18 | 0.05 | 91 | 1003.7 |
| 20260507070904 | 7 | 110 | 4.8 | 19.3 | 0.00 | 2.18 | 0.05 | 91 | 1003.4 |
| 20260507065904 | 7 | 88 | 8.0 | 14.5 | 0.00 | 2.18 | 0.05 | 91 | 1003.2 |
| 20260507065404 | 7 | 74 | 1.6 | 16.1 | 0.00 | 2.18 | 0.05 | 91 | 1003.5 |
| 20260507064905 | 7 | 81 | 4.8 | 16.1 | 0.00 | 2.18 | 0.05 | 91 | 1003.6 |
| 20260507064404 | 7 | 73 | 4.8 | 19.3 | 0.00 | 2.18 | 0.05 | 91 | 1003.3 |
| 20260507063904 | 7 | 85 | 9.7 | 19.3 | 0.00 | 2.18 | 0.05 | 92 | 1003.1 |
| 20260507063404 | 7 | 65 | 4.8 | 19.3 | 0.00 | 2.18 | 0.05 | 92 | 1003.2 |
| 20260507062904 | 7 | 92 | 3.2 | 12.9 | 0.00 | 2.18 | 0.05 | 92 | 1003.1 |
| 20260507062404 | 7 | 78 | 8.0 | 27.4 | 0.00 | 2.18 | 0.05 | 93 | 1003.0 |
| 20260507061904 | 7 | 101 | 3.2 | 12.9 | 0.00 | 2.18 | 0.05 | 93 | 1003.2 |
| 20260507061404 | 7 | 97 | 1.6 | 19.3 | 0.00 | 2.18 | 0.05 | 93 | 1003.0 |
| 20260507060904 | 7 | 83 | 0.0 | 14.5 | 0.00 | 2.18 | 0.05 | 94 | 1003.1 |
| 20260507055904 | 7 | 82 | 3.2 | 12.9 | 0.00 | 2.18 | 0.05 | 94 | 1003.0 |
| 20260507055404 | 7 | 85 | 3.2 | 14.5 | 0.00 | 2.18 | 0.05 | 94 | 1002.9 |
| 20260507054904 | 8 | 85 | 4.8 | 14.5 | 0.00 | 2.18 | 0.05 | 94 | 1002.7 |
| 20260507054403 | 7 | 79 | 1.6 | 16.1 | 0.00 | 2.18 | 0.05 | 95 | 1002.5 |
| 20260507053904 | 8 | 107 | 0.0 | 0.0 | 0.00 | 2.18 | 0.05 | 95 | 1002.8 |
| 20260507053404 | 8 | 107 | 0.0 | 0.0 | 0.00 | 2.18 | 0.05 | 95 | 1002.7 |
| 20260507052904 | 8 | 107 | 0.0 | 0.0 | 0.00 | 2.18 | 0.05 | 95 | 1002.8 |
| 20260507052404 | 8 | 107 | 0.0 | 0.0 | 0.03 | 2.18 | 0.05 | 95 | 1002.3 |
| 20260507051904 | 8 | 107 | 0.0 | 0.0 | 0.03 | 2.18 | 0.05 | 94 | 1002.7 |
| 20260507050904 | 8 | 107 | 3.2 | 11.3 | 0.05 | 2.18 | 0.05 | 94 | 1002.8 |
| 20260507050404 | 8 | 107 | 4.8 | 14.5 | 0.05 | 2.18 | 0.05 | 94 | 1002.7 |
| 20260507045904 | 8 | 80 | 4.8 | 14.5 | 0.05 | 2.18 | 0.05 | 94 | 1002.8 |
| 20260507045404 | 8 | 117 | 0.0 | 0.0 | 0.05 | 2.18 | 0.05 | 94 | 1003.0 |
| 20260507044904 | 8 | 117 | 0.0 | 0.0 | 0.05 | 2.18 | 0.05 | 94 | 1002.9 |
| 20260507044404 | 8 | 117 | 1.6 | 14.5 | 0.05 | 2.18 | 0.05 | 94 | 1002.7 |
| 20260507043904 | 8 | 115 | 8.0 | 19.3 | 0.08 | 2.18 | 0.05 | 94 | 1002.8 |
| 20260507043404 | 8 | 80 | 4.8 | 16.1 | 0.08 | 2.18 | 0.05 | 94 | 1003.1 |
| 20260507041904 | 8 | 86 | 1.6 | 19.3 | 0.08 | 2.16 | 0.03 | 94 | 1003.1 |
| 20260507041404 | 8 | 71 | 4.8 | 22.5 | 0.05 | 2.13 | 0.00 | 94 | 1003.0 |
| 20260507040904 | 8 | 73 | 9.7 | 19.3 | 0.05 | 2.13 | 0.00 | 94 | 1003.1 |
| 20260507040404 | 8 | 80 | 8.0 | 19.3 | 0.08 | 2.13 | 0.00 | 94 | 1003.1 |
| 20260507035904 | 8 | 97 | 3.2 | 22.5 | 0.08 | 2.13 | 2.13 | 94 | 1003.0 |
| 20260507035404 | 8 | 106 | 11.3 | 24.1 | 0.10 | 2.13 | 2.13 | 94 | 1002.9 |
| 20260507034904 | 9 | 91 | 8.0 | 22.5 | 0.10 | 2.13 | 2.13 | 94 | 1002.8 |
| 20260507033904 | 9 | 63 | 4.8 | 19.3 | 0.13 | 2.11 | 2.11 | 94 | 1002.8 |
| 20260507033404 | 9 | 93 | 11.3 | 25.7 | 0.13 | 2.11 | 2.11 | 94 | 1002.4 |
| 20260507032903 | 9 | 79 | 8.0 | 20.9 | 0.13 | 2.11 | 2.11 | 94 | 1002.8 |
| 20260507031904 | 9 | 72 | 9.7 | 20.9 | 0.10 | 2.08 | 2.08 | 94 | 1002.6 |
| 20260507030904 | 10 | 79 | 4.8 | 22.5 | 0.13 | 2.08 | 2.08 | 95 | 1002.5 |
| 20260507030404 | 10 | 110 | 6.4 | 20.9 | 0.10 | 2.06 | 2.06 | 95 | 1002.4 |
| 20260507025404 | 10 | 92 | 6.4 | 19.3 | 0.08 | 2.03 | 2.03 | 95 | 1002.5 |
| 20260507024904 | 10 | 88 | 4.8 | 19.3 | 0.08 | 2.03 | 2.03 | 95 | 1002.3 |
| 20260507024404 | 10 | 88 | 9.7 | 20.9 | 0.05 | 2.01 | 2.01 | 95 | 1002.3 |
| 20260507023904 | 11 | 91 | 11.3 | 19.3 | 0.03 | 1.98 | 1.98 | 95 | 1002.4 |
| 20260507022404 | 11 | 90 | 0.0 | 0.0 | 0.05 | 1.98 | 1.98 | 96 | 1002.1 |
| 20260507021404 | 11 | 90 | 0.0 | 0.0 | 0.05 | 1.98 | 1.98 | 96 | 1002.0 |
| 20260507020904 | 11 | 90 | 0.0 | 0.0 | 0.03 | 1.96 | 1.96 | 96 | 1001.9 |